Liberty — WDF4885 — position and weather

sailwx.info

Track history (hours):
 
Tides and Currents Weather Stations Pressure Air Temp Water Temp Dewpoint Dewpoint Depression Visibility Wind Speed Wind Dir Waves Ship Positions

Liberty

Owner: Canal Barge Company, Inc., Belle Chasse, LA. More information available from US FCC via Universal Licensing System and Coast Guard Vessel Documentation Center.

Last reported at 2017-Nov-20 00:30 UTC. Time now 2017-Nov-20 02:11 UTC.
Position N 29°37' W 095°01'.

Length 25 m; draft 3 m.

MMSI: 367456870.

Date/timePositionNaut miles runAvg speedWind from/ knotsBaromVisibWave heightAir tempDewpointWater temp
2017-Nov-20 00:30N 29°37' W 095°01'3 5.5
2017-Nov-20 00:00N 29°37' W 094°58'2 4.2
2017-Nov-19 23:30N 29°39' W 094°58'3 5.1
2017-Nov-19 23:00N 29°41' W 094°59'2 4.3
2017-Nov-19 22:30N 29°42' W 095°01'1 0.2
2017-Nov-19 16:08N 29°42' W 095°03'0 0.4
2017-Nov-19 16:00N 29°42' W 095°03'0 0.1
2017-Nov-19 15:30N 29°42' W 095°03'0 0.0
2017-Nov-19 13:36N 29°42' W 095°03'0 0.9
2017-Nov-19 13:30N 29°42' W 095°03'0 0.0
2017-Nov-18 19:46N 29°42' W 095°03'0 0.9
2017-Nov-18 19:28N 29°42' W 095°03'2 3.8
2017-Nov-18 19:00N 29°42' W 095°01'3 5.4
2017-Nov-18 18:30N 29°40' W 094°59'3 5.6
2017-Nov-18 17:53N 29°37' W 094°57'2 5.7
2017-Nov-18 17:30N 29°35' W 094°56'71 1.4
2017-Nov-16 16:19N 30°04' W 093°41'2 5.4
2017-Nov-16 15:59N 30°04' W 093°39'2 5.0
2017-Nov-16 15:30N 30°04' W 093°37'2 4.5
2017-Nov-16 15:00N 30°04' W 093°34'2 4.3
2017-Nov-16 14:29N 30°04' W 093°31'2 3.8
2017-Nov-16 14:00N 30°04' W 093°29'2 3.6
2017-Nov-16 13:30N 30°04' W 093°27'0 0.1
2017-Nov-16 13:00N 30°04' W 093°27'0 0.0
2017-Nov-16 12:30N 30°04' W 093°27'0 0.0
2017-Nov-16 12:00N 30°04' W 093°27'0 0.0
2017-Nov-16 11:30N 30°04' W 093°27'0 0.0
2017-Nov-16 11:00N 30°04' W 093°27'0 0.0
2017-Nov-16 10:30N 30°04' W 093°27'0 0.0
2017-Nov-16 10:00N 30°04' W 093°27'0 0.0
2017-Nov-16 09:30N 30°04' W 093°27'0 0.0
2017-Nov-16 09:00N 30°04' W 093°27'0 0.0
2017-Nov-16 08:30N 30°04' W 093°27'0 0.0
2017-Nov-16 08:00N 30°04' W 093°27'0 0.5
2017-Nov-16 07:30N 30°04' W 093°27'2 3.7
2017-Nov-16 07:00N 30°04' W 093°25'2 4.1
2017-Nov-16 06:30N 30°04' W 093°22'1 2.8
2017-Nov-16 06:00N 30°04' W 093°21'2 3.1
2017-Nov-16 05:30N 30°05' W 093°20'2 4.3
2017-Nov-16 05:00N 30°07' W 093°20'2 5.0
2017-Nov-16 04:30N 30°10' W 093°19'3 5.4
2017-Nov-16 04:00N 30°12' W 093°17'2 3.2
2017-Nov-16 03:30N 30°13' W 093°16'1 1.9
2017-Nov-16 03:00N 30°14' W 093°15'0 0.1
2017-Nov-16 02:30N 30°14' W 093°16'0 0.0
2017-Nov-16 02:00N 30°14' W 093°15'0 0.0
2017-Nov-16 01:30N 30°14' W 093°15'0 0.0
2017-Nov-16 01:00N 30°14' W 093°15'0 0.0
2017-Nov-16 00:30N 30°14' W 093°15'0 0.0
2017-Nov-16 00:00N 30°14' W 093°15'0 0.0
2017-Nov-15 23:30N 30°14' W 093°15'0 0.0
2017-Nov-15 23:00N 30°14' W 093°15'0 0.0
2017-Nov-15 22:30N 30°14' W 093°15'0 0.0
2017-Nov-15 22:00N 30°14' W 093°15'0 0.0
2017-Nov-15 21:30N 30°14' W 093°15'0 0.0
2017-Nov-15 21:00N 30°14' W 093°15'0 0.0
2017-Nov-15 20:30N 30°14' W 093°15'0 0.0
2017-Nov-15 20:00N 30°14' W 093°15'0 0.0
2017-Nov-15 19:30N 30°14' W 093°15'0 0.0
2017-Nov-15 19:00N 30°14' W 093°15'0 0.0
2017-Nov-15 18:30N 30°14' W 093°15'0 0.0
2017-Nov-15 18:00N 30°14' W 093°15'0 0.0
2017-Nov-15 17:30N 30°14' W 093°15'0 0.0
2017-Nov-15 17:00N 30°14' W 093°15'0 0.0
2017-Nov-15 16:30N 30°14' W 093°15'0 0.0
2017-Nov-15 16:00N 30°14' W 093°15'0 0.0
2017-Nov-15 15:30N 30°14' W 093°15'0 0.0
2017-Nov-15 15:00N 30°14' W 093°15'0 0.0
2017-Nov-15 14:30N 30°14' W 093°15'0 0.0
2017-Nov-15 14:00N 30°14' W 093°15'0 0.0
2017-Nov-15 13:30N 30°14' W 093°15'0 0.0
2017-Nov-15 13:00N 30°14' W 093°15'0 0.0
2017-Nov-15 12:30N 30°14' W 093°15'0 0.0
2017-Nov-15 12:00N 30°14' W 093°15'0 0.0
2017-Nov-15 11:27N 30°14' W 093°15'0 0.0
2017-Nov-15 10:59N 30°14' W 093°15'0 0.0
2017-Nov-15 10:30N 30°14' W 093°15'0 0.0
2017-Nov-15 10:00N 30°14' W 093°15'0 0.0
2017-Nov-15 09:30N 30°14' W 093°15'0 0.0
2017-Nov-15 09:00N 30°14' W 093°15'0 0.0
2017-Nov-15 08:30N 30°14' W 093°15'0 0.0
2017-Nov-15 08:00N 30°14' W 093°15'0 0.0
2017-Nov-15 07:30N 30°14' W 093°15'0 0.0
2017-Nov-15 07:00N 30°14' W 093°15'0 0.0
2017-Nov-15 06:30N 30°14' W 093°15'0 0.0
2017-Nov-15 06:00N 30°14' W 093°15'0 0.0
2017-Nov-15 05:30N 30°14' W 093°15'0 0.0
2017-Nov-15 05:00N 30°14' W 093°15'0 0.0
2017-Nov-15 04:30N 30°14' W 093°15'0 0.0
2017-Nov-15 04:00N 30°14' W 093°15'0 0.0
2017-Nov-15 03:30N 30°14' W 093°15'0 0.0
2017-Nov-15 03:00N 30°14' W 093°15'0 0.0
2017-Nov-15 02:30N 30°14' W 093°15'0 0.0
2017-Nov-15 02:00N 30°14' W 093°15'0 0.0
2017-Nov-15 01:30N 30°14' W 093°15'0 0.0
2017-Nov-15 01:00N 30°14' W 093°15'0 0.0
2017-Nov-15 00:30N 30°14' W 093°15'0 0.0
2017-Nov-15 00:00N 30°14' W 093°15'0 0.0
2017-Nov-14 23:30N 30°14' W 093°15'0 0.0
2017-Nov-14 23:00N 30°14' W 093°15'0 0.0
2017-Nov-14 22:30N 30°14' W 093°15'0 0.0
2017-Nov-14 22:00N 30°14' W 093°15'0 0.0
2017-Nov-14 21:30N 30°14' W 093°15'0 0.0
2017-Nov-14 21:00N 30°14' W 093°15'0 0.0
2017-Nov-14 20:30N 30°14' W 093°15'0 0.0
2017-Nov-14 20:00N 30°14' W 093°15'0 0.0
2017-Nov-14 19:30N 30°14' W 093°15'0 0.0
2017-Nov-14 19:00N 30°14' W 093°15'0 0.0
2017-Nov-14 18:30N 30°14' W 093°15'0 0.0
2017-Nov-14 18:00N 30°14' W 093°15'0 0.0
2017-Nov-14 17:30N 30°14' W 093°15'0 0.0
2017-Nov-14 17:00N 30°14' W 093°15'0 0.0
2017-Nov-14 16:30N 30°14' W 093°15'0 0.0
2017-Nov-14 16:00N 30°14' W 093°15'0 0.0
2017-Nov-14 15:30N 30°14' W 093°15'0 0.0
2017-Nov-14 15:00N 30°14' W 093°15'0 0.0
2017-Nov-14 14:30N 30°14' W 093°15'0 0.0
2017-Nov-14 13:59N 30°14' W 093°15'0 0.4
2017-Nov-14 13:30N 30°14' W 093°16'0 0.4
2017-Nov-14 13:00N 30°14' W 093°15'0 0.0
2017-Nov-14 12:30N 30°14' W 093°15'0 0.0
2017-Nov-14 11:35N 30°14' W 093°15'0 0.0
2017-Nov-14 11:25N 30°14' W 093°15'0 0.0
2017-Nov-14 10:51N 30°14' W 093°15'0 0.0
2017-Nov-14 10:29N 30°14' W 093°15'0 0.0
2017-Nov-14 01:42N 30°14' W 093°16'0 0.0
2017-Nov-14 00:53N 30°14' W 093°16'0 0.0
2017-Nov-13 22:49N 30°14' W 093°16'0 0.0
2017-Nov-13 22:21N 30°14' W 093°16'0 0.0
2017-Nov-13 21:59N 30°14' W 093°16'0 0.0
2017-Nov-13 01:04N 30°14' W 093°16'0 0.0
2017-Nov-13 00:47N 30°14' W 093°16'0 0.0
2017-Nov-13 00:23N 30°14' W 093°16'0 0.0
2017-Nov-12 23:59N 30°14' W 093°16'0 0.0
2017-Nov-12 23:25N 30°14' W 093°16'0 0.0
2017-Nov-12 22:47N 30°14' W 093°16'0 0.0
2017-Nov-12 22:27N 30°14' W 093°16'0 0.0
2017-Nov-12 21:49N 30°14' W 093°16'0 0.0
2017-Nov-12 21:29N 30°14' W 093°16'0 0.0
2017-Nov-12 19:37N 30°14' W 093°16'0 0.0
2017-Nov-12 19:25N 30°14' W 093°16'0 0.0
2017-Nov-12 18:49N 30°14' W 093°16'0 0.0
2017-Nov-12 17:38N 30°14' W 093°16'0 0.0
2017-Nov-12 17:23N 30°14' W 093°16'0 0.0
2017-Nov-12 16:57N 30°14' W 093°16'0 0.0
2017-Nov-12 16:30N 30°14' W 093°16'0 0.0
2017-Nov-12 15:53N 30°14' W 093°16'0 0.0
2017-Nov-12 15:29N 30°14' W 093°16'0 0.0
2017-Nov-12 14:51N 30°14' W 093°16'0 0.0
2017-Nov-12 14:11N 30°14' W 093°16'0 0.0
2017-Nov-12 13:49N 30°14' W 093°16'0 0.0
2017-Nov-12 13:23N 30°14' W 093°16'0 0.0
2017-Nov-12 12:59N 30°14' W 093°16'0 0.0
2017-Nov-12 12:23N 30°14' W 093°16'0 0.0
2017-Nov-10 16:30N 30°14' W 093°16'0 0.0
2017-Nov-10 16:00N 30°14' W 093°16'0 0.0
2017-Nov-10 15:30N 30°14' W 093°16'0 0.0
2017-Nov-10 15:00N 30°14' W 093°16'0 0.0
2017-Nov-10 14:30N 30°14' W 093°16'0 0.0
2017-Nov-10 14:00N 30°14' W 093°16'0 0.0
2017-Nov-10 13:30N 30°14' W 093°16'0 0.0
2017-Nov-10 13:00N 30°14' W 093°16'0 0.0
2017-Nov-10 12:30N 30°14' W 093°16'0 0.0
2017-Nov-10 12:00N 30°14' W 093°16'0 0.0
2017-Nov-10 11:30N 30°14' W 093°16'0 0.0
2017-Nov-10 11:00N 30°14' W 093°16'0 0.0
2017-Nov-10 10:30N 30°14' W 093°16'0 0.0
2017-Nov-10 10:00N 30°14' W 093°16'0 0.0
2017-Nov-10 09:30N 30°14' W 093°16'0 0.0
2017-Nov-10 09:00N 30°14' W 093°16'0 0.0
2017-Nov-10 08:30N 30°14' W 093°16'0 0.0
2017-Nov-10 08:00N 30°14' W 093°16'0 0.0
2017-Nov-10 07:30N 30°14' W 093°16'0 0.0
2017-Nov-10 07:00N 30°14' W 093°16'0 0.0
2017-Nov-10 06:30N 30°14' W 093°16'0 0.0
2017-Nov-10 06:00N 30°14' W 093°16'0 0.0
2017-Nov-10 05:30N 30°14' W 093°16'0 0.0
2017-Nov-10 05:00N 30°14' W 093°16'0 0.0
2017-Nov-10 04:30N 30°14' W 093°16'0 0.0
2017-Nov-10 04:00N 30°14' W 093°16'0 0.0
2017-Nov-10 03:30N 30°14' W 093°16'0 0.0
2017-Nov-10 03:00N 30°14' W 093°16'0 0.0
2017-Nov-10 02:30N 30°14' W 093°16'0 0.0
2017-Nov-10 02:00N 30°14' W 093°16'0 0.0
2017-Nov-10 01:30N 30°14' W 093°16'0 0.0
2017-Nov-10 01:00N 30°14' W 093°16'0 0.0
2017-Nov-10 00:30N 30°14' W 093°16'  
Track history (hours):
 
Tides and Currents Weather Stations Pressure Air Temp Water Temp Dewpoint Dewpoint Depression Visibility Wind Speed Wind Dir Waves Ship Positions

Liberty

Owner: Canal Barge Company, Inc., Belle Chasse, LA. More information available from US FCC via Universal Licensing System and Coast Guard Vessel Documentation Center.

Last reported at 2017-Nov-20 00:30 UTC. Time now 2017-Nov-20 02:11 UTC.
Position N 29°37' W 095°01'.

Length 25 m; draft 3 m.

MMSI: 367456870.

Date/timePositionNaut miles runAvg speedWind from/ knotsBaromVisibWave heightAir tempDewpointWater temp
2017-Nov-20 00:30N 29°37' W 095°01'3 5.5
2017-Nov-20 00:00N 29°37' W 094°58'2 4.2
2017-Nov-19 23:30N 29°39' W 094°58'3 5.1
2017-Nov-19 23:00N 29°41' W 094°59'2 4.3
2017-Nov-19 22:30N 29°42' W 095°01'1 0.2
2017-Nov-19 16:08N 29°42' W 095°03'0 0.4
2017-Nov-19 16:00N 29°42' W 095°03'0 0.1
2017-Nov-19 15:30N 29°42' W 095°03'0 0.0
2017-Nov-19 13:36N 29°42' W 095°03'0 0.9
2017-Nov-19 13:30N 29°42' W 095°03'0 0.0
2017-Nov-18 19:46N 29°42' W 095°03'0 0.9
2017-Nov-18 19:28N 29°42' W 095°03'2 3.8
2017-Nov-18 19:00N 29°42' W 095°01'3 5.4
2017-Nov-18 18:30N 29°40' W 094°59'3 5.6
2017-Nov-18 17:53N 29°37' W 094°57'2 5.7
2017-Nov-18 17:30N 29°35' W 094°56'71 1.4
2017-Nov-16 16:19N 30°04' W 093°41'2 5.4
2017-Nov-16 15:59N 30°04' W 093°39'2 5.0
2017-Nov-16 15:30N 30°04' W 093°37'2 4.5
2017-Nov-16 15:00N 30°04' W 093°34'2 4.3
2017-Nov-16 14:29N 30°04' W 093°31'2 3.8
2017-Nov-16 14:00N 30°04' W 093°29'2 3.6
2017-Nov-16 13:30N 30°04' W 093°27'0 0.1
2017-Nov-16 13:00N 30°04' W 093°27'0 0.0
2017-Nov-16 12:30N 30°04' W 093°27'0 0.0
2017-Nov-16 12:00N 30°04' W 093°27'0 0.0
2017-Nov-16 11:30N 30°04' W 093°27'0 0.0
2017-Nov-16 11:00N 30°04' W 093°27'0 0.0
2017-Nov-16 10:30N 30°04' W 093°27'0 0.0
2017-Nov-16 10:00N 30°04' W 093°27'0 0.0
2017-Nov-16 09:30N 30°04' W 093°27'0 0.0
2017-Nov-16 09:00N 30°04' W 093°27'0 0.0
2017-Nov-16 08:30N 30°04' W 093°27'0 0.0
2017-Nov-16 08:00N 30°04' W 093°27'0 0.5
2017-Nov-16 07:30N 30°04' W 093°27'2 3.7
2017-Nov-16 07:00N 30°04' W 093°25'2 4.1
2017-Nov-16 06:30N 30°04' W 093°22'1 2.8
2017-Nov-16 06:00N 30°04' W 093°21'2 3.1
2017-Nov-16 05:30N 30°05' W 093°20'2 4.3
2017-Nov-16 05:00N 30°07' W 093°20'2 5.0
2017-Nov-16 04:30N 30°10' W 093°19'3 5.4
2017-Nov-16 04:00N 30°12' W 093°17'2 3.2
2017-Nov-16 03:30N 30°13' W 093°16'1 1.9
2017-Nov-16 03:00N 30°14' W 093°15'0 0.1
2017-Nov-16 02:30N 30°14' W 093°16'0 0.0
2017-Nov-16 02:00N 30°14' W 093°15'0 0.0
2017-Nov-16 01:30N 30°14' W 093°15'0 0.0
2017-Nov-16 01:00N 30°14' W 093°15'0 0.0
2017-Nov-16 00:30N 30°14' W 093°15'0 0.0
2017-Nov-16 00:00N 30°14' W 093°15'0 0.0
2017-Nov-15 23:30N 30°14' W 093°15'0 0.0
2017-Nov-15 23:00N 30°14' W 093°15'0 0.0
2017-Nov-15 22:30N 30°14' W 093°15'0 0.0
2017-Nov-15 22:00N 30°14' W 093°15'0 0.0
2017-Nov-15 21:30N 30°14' W 093°15'0 0.0
2017-Nov-15 21:00N 30°14' W 093°15'0 0.0
2017-Nov-15 20:30N 30°14' W 093°15'0 0.0
2017-Nov-15 20:00N 30°14' W 093°15'0 0.0
2017-Nov-15 19:30N 30°14' W 093°15'0 0.0
2017-Nov-15 19:00N 30°14' W 093°15'0 0.0
2017-Nov-15 18:30N 30°14' W 093°15'0 0.0
2017-Nov-15 18:00N 30°14' W 093°15'0 0.0
2017-Nov-15 17:30N 30°14' W 093°15'0 0.0
2017-Nov-15 17:00N 30°14' W 093°15'0 0.0
2017-Nov-15 16:30N 30°14' W 093°15'0 0.0
2017-Nov-15 16:00N 30°14' W 093°15'0 0.0
2017-Nov-15 15:30N 30°14' W 093°15'0 0.0
2017-Nov-15 15:00N 30°14' W 093°15'0 0.0
2017-Nov-15 14:30N 30°14' W 093°15'0 0.0
2017-Nov-15 14:00N 30°14' W 093°15'0 0.0
2017-Nov-15 13:30N 30°14' W 093°15'0 0.0
2017-Nov-15 13:00N 30°14' W 093°15'0 0.0
2017-Nov-15 12:30N 30°14' W 093°15'0 0.0
2017-Nov-15 12:00N 30°14' W 093°15'0 0.0
2017-Nov-15 11:27N 30°14' W 093°15'0 0.0
2017-Nov-15 10:59N 30°14' W 093°15'0 0.0
2017-Nov-15 10:30N 30°14' W 093°15'0 0.0
2017-Nov-15 10:00N 30°14' W 093°15'0 0.0
2017-Nov-15 09:30N 30°14' W 093°15'0 0.0
2017-Nov-15 09:00N 30°14' W 093°15'0 0.0
2017-Nov-15 08:30N 30°14' W 093°15'0 0.0
2017-Nov-15 08:00N 30°14' W 093°15'0 0.0
2017-Nov-15 07:30N 30°14' W 093°15'0 0.0
2017-Nov-15 07:00N 30°14' W 093°15'0 0.0
2017-Nov-15 06:30N 30°14' W 093°15'0 0.0
2017-Nov-15 06:00N 30°14' W 093°15'0 0.0
2017-Nov-15 05:30N 30°14' W 093°15'0 0.0
2017-Nov-15 05:00N 30°14' W 093°15'0 0.0
2017-Nov-15 04:30N 30°14' W 093°15'0 0.0
2017-Nov-15 04:00N 30°14' W 093°15'0 0.0
2017-Nov-15 03:30N 30°14' W 093°15'0 0.0
2017-Nov-15 03:00N 30°14' W 093°15'0 0.0
2017-Nov-15 02:30N 30°14' W 093°15'0 0.0
2017-Nov-15 02:00N 30°14' W 093°15'0 0.0
2017-Nov-15 01:30N 30°14' W 093°15'0 0.0
2017-Nov-15 01:00N 30°14' W 093°15'0 0.0
2017-Nov-15 00:30N 30°14' W 093°15'0 0.0
2017-Nov-15 00:00N 30°14' W 093°15'0 0.0
2017-Nov-14 23:30N 30°14' W 093°15'0 0.0
2017-Nov-14 23:00N 30°14' W 093°15'0 0.0
2017-Nov-14 22:30N 30°14' W 093°15'0 0.0
2017-Nov-14 22:00N 30°14' W 093°15'0 0.0
2017-Nov-14 21:30N 30°14' W 093°15'0 0.0
2017-Nov-14 21:00N 30°14' W 093°15'0 0.0
2017-Nov-14 20:30N 30°14' W 093°15'0 0.0
2017-Nov-14 20:00N 30°14' W 093°15'0 0.0
2017-Nov-14 19:30N 30°14' W 093°15'0 0.0
2017-Nov-14 19:00N 30°14' W 093°15'0 0.0
2017-Nov-14 18:30N 30°14' W 093°15'0 0.0
2017-Nov-14 18:00N 30°14' W 093°15'0 0.0
2017-Nov-14 17:30N 30°14' W 093°15'0 0.0
2017-Nov-14 17:00N 30°14' W 093°15'0 0.0
2017-Nov-14 16:30N 30°14' W 093°15'0 0.0
2017-Nov-14 16:00N 30°14' W 093°15'0 0.0
2017-Nov-14 15:30N 30°14' W 093°15'0 0.0
2017-Nov-14 15:00N 30°14' W 093°15'0 0.0
2017-Nov-14 14:30N 30°14' W 093°15'0 0.0
2017-Nov-14 13:59N 30°14' W 093°15'0 0.4
2017-Nov-14 13:30N 30°14' W 093°16'0 0.4
2017-Nov-14 13:00N 30°14' W 093°15'0 0.0
2017-Nov-14 12:30N 30°14' W 093°15'0 0.0
2017-Nov-14 11:35N 30°14' W 093°15'0 0.0
2017-Nov-14 11:25N 30°14' W 093°15'0 0.0
2017-Nov-14 10:51N 30°14' W 093°15'0 0.0
2017-Nov-14 10:29N 30°14' W 093°15'0 0.0
2017-Nov-14 01:42N 30°14' W 093°16'0 0.0
2017-Nov-14 00:53N 30°14' W 093°16'0 0.0
2017-Nov-13 22:49N 30°14' W 093°16'0 0.0
2017-Nov-13 22:21N 30°14' W 093°16'0 0.0
2017-Nov-13 21:59N 30°14' W 093°16'0 0.0
2017-Nov-13 01:04N 30°14' W 093°16'0 0.0
2017-Nov-13 00:47N 30°14' W 093°16'0 0.0
2017-Nov-13 00:23N 30°14' W 093°16'0 0.0
2017-Nov-12 23:59N 30°14' W 093°16'0 0.0
2017-Nov-12 23:25N 30°14' W 093°16'0 0.0
2017-Nov-12 22:47N 30°14' W 093°16'0 0.0
2017-Nov-12 22:27N 30°14' W 093°16'0 0.0
2017-Nov-12 21:49N 30°14' W 093°16'0 0.0
2017-Nov-12 21:29N 30°14' W 093°16'0 0.0
2017-Nov-12 19:37N 30°14' W 093°16'0 0.0
2017-Nov-12 19:25N 30°14' W 093°16'0 0.0
2017-Nov-12 18:49N 30°14' W 093°16'0 0.0
2017-Nov-12 17:38N 30°14' W 093°16'0 0.0
2017-Nov-12 17:23N 30°14' W 093°16'0 0.0
2017-Nov-12 16:57N 30°14' W 093°16'0 0.0
2017-Nov-12 16:30N 30°14' W 093°16'0 0.0
2017-Nov-12 15:53N 30°14' W 093°16'0 0.0
2017-Nov-12 15:29N 30°14' W 093°16'0 0.0
2017-Nov-12 14:51N 30°14' W 093°16'0 0.0
2017-Nov-12 14:11N 30°14' W 093°16'0 0.0
2017-Nov-12 13:49N 30°14' W 093°16'0 0.0
2017-Nov-12 13:23N 30°14' W 093°16'0 0.0
2017-Nov-12 12:59N 30°14' W 093°16'0 0.0
2017-Nov-12 12:23N 30°14' W 093°16'0 0.0
2017-Nov-10 16:30N 30°14' W 093°16'0 0.0
2017-Nov-10 16:00N 30°14' W 093°16'0 0.0
2017-Nov-10 15:30N 30°14' W 093°16'0 0.0
2017-Nov-10 15:00N 30°14' W 093°16'0 0.0
2017-Nov-10 14:30N 30°14' W 093°16'0 0.0
2017-Nov-10 14:00N 30°14' W 093°16'0 0.0
2017-Nov-10 13:30N 30°14' W 093°16'0 0.0
2017-Nov-10 13:00N 30°14' W 093°16'0 0.0
2017-Nov-10 12:30N 30°14' W 093°16'0 0.0
2017-Nov-10 12:00N 30°14' W 093°16'0 0.0
2017-Nov-10 11:30N 30°14' W 093°16'0 0.0
2017-Nov-10 11:00N 30°14' W 093°16'0 0.0
2017-Nov-10 10:30N 30°14' W 093°16'0 0.0
2017-Nov-10 10:00N 30°14' W 093°16'0 0.0
2017-Nov-10 09:30N 30°14' W 093°16'0 0.0
2017-Nov-10 09:00N 30°14' W 093°16'0 0.0
2017-Nov-10 08:30N 30°14' W 093°16'0 0.0
2017-Nov-10 08:00N 30°14' W 093°16'0 0.0
2017-Nov-10 07:30N 30°14' W 093°16'0 0.0
2017-Nov-10 07:00N 30°14' W 093°16'0 0.0
2017-Nov-10 06:30N 30°14' W 093°16'0 0.0
2017-Nov-10 06:00N 30°14' W 093°16'0 0.0
2017-Nov-10 05:30N 30°14' W 093°16'0 0.0
2017-Nov-10 05:00N 30°14' W 093°16'0 0.0
2017-Nov-10 04:30N 30°14' W 093°16'0 0.0
2017-Nov-10 04:00N 30°14' W 093°16'0 0.0
2017-Nov-10 03:30N 30°14' W 093°16'0 0.0
2017-Nov-10 03:00N 30°14' W 093°16'0 0.0
2017-Nov-10 02:30N 30°14' W 093°16'0 0.0
2017-Nov-10 02:00N 30°14' W 093°16'0 0.0
2017-Nov-10 01:30N 30°14' W 093°16'0 0.0
2017-Nov-10 01:00N 30°14' W 093°16'0 0.0
2017-Nov-10 00:30N 30°14' W 093°16'  

Dump ship's entire track history